Time;durP1;ratioP1;P1;durP2;ratioP2;P2;SDS_P1;SDS_P2;PMS_P1;PMS_P2;Temp;Humidity;BMP_temperature;BMP_pressure;BME280_temperature;BME280_humidity;BME280_pressure;Samples;Min_cycle;Max_cycle;Signal;HPM_P1;HPM_P2
2022/04/12 00:01:11;;;;;;;8.82;5.15;;;4.90;99.90;;;;;;5058564;28;20052;-89
2022/04/12 00:03:37;;;;;;;11.25;5.40;;;4.90;99.90;;;;;;5056943;28;20025;-90
2022/04/12 00:06:03;;;;;;;10.38;5.72;;;4.80;99.90;;;;;;5056832;28;20394;-89
2022/04/12 00:08:28;;;;;;;9.48;5.53;;;4.80;99.90;;;;;;5056656;28;20053;-90
2022/04/12 00:10:54;;;;;;;12.60;5.97;;;4.70;99.90;;;;;;5057969;28;20040;-91
2022/04/12 00:13:22;;;;;;;12.10;6.10;;;4.80;99.90;;;;;;5057045;28;20025;-90
2022/04/12 00:15:50;;;;;;;13.25;6.32;;;4.70;99.90;;;;;;5056643;28;20034;-89
2022/04/12 00:21:01;;;;;;;12.23;5.90;;;4.80;99.90;;;;;;5058172;28;20039;-91
2022/04/12 00:23:27;;;;;;;9.65;5.28;;;4.70;99.90;;;;;;5057911;28;20079;-89
2022/04/12 00:25:53;;;;;;;8.73;5.65;;;4.70;99.90;;;;;;5056603;28;20472;-90
2022/04/12 00:28:19;;;;;;;13.20;6.50;;;4.60;99.90;;;;;;5056258;28;20104;-91
2022/04/12 00:30:45;;;;;;;10.52;5.70;;;4.60;99.90;;;;;;5056397;28;20021;-90
2022/04/12 00:33:11;;;;;;;9.45;5.20;;;4.60;99.90;;;;;;5056286;28;20075;-91
2022/04/12 00:35:37;;;;;;;9.40;5.68;;;4.60;99.90;;;;;;5056383;28;20021;-93
2022/04/12 00:38:22;;;;;;;7.65;5.55;;;4.60;99.90;;;;;;5056224;28;20021;-91
2022/04/12 00:40:48;;;;;;;12.10;5.22;;;4.50;99.90;;;;;;5057470;28;20025;-91
2022/04/12 00:43:19;;;;;;;7.55;5.10;;;4.50;99.90;;;;;;5056180;28;20021;-89
2022/04/12 00:45:45;;;;;;;11.38;5.53;;;4.50;99.90;;;;;;5056584;28;20021;-91
2022/04/12 00:48:12;;;;;;;9.98;5.53;;;4.40;99.90;;;;;;5057248;28;20090;-93
2022/04/12 00:50:38;;;;;;;13.35;6.03;;;4.50;99.90;;;;;;5056228;28;20456;-92
2022/04/12 00:53:06;;;;;;;12.13;5.90;;;4.40;99.90;;;;;;5056107;28;20049;-92
2022/04/12 00:55:32;;;;;;;9.00;5.20;;;4.40;99.90;;;;;;5055693;28;20029;-90
2022/04/12 00:57:58;;;;;;;8.23;5.25;;;4.40;99.90;;;;;;5055959;28;20021;-90
2022/04/12 01:00:26;;;;;;;9.38;4.95;;;4.40;99.90;;;;;;5056042;28;20079;-93
2022/04/12 01:02:51;;;;;;;9.82;5.00;;;4.40;99.90;;;;;;5055755;28;20021;-88
2022/04/12 01:05:17;;;;;;;9.07;4.78;;;4.40;99.90;;;;;;5055800;28;20029;-89
2022/04/12 01:07:44;;;;;;;7.03;4.65;;;4.40;99.90;;;;;;5055849;28;20467;-89
2022/04/12 01:10:09;;;;;;;8.15;4.18;;;4.40;99.90;;;;;;5055404;28;20082;-88
2022/04/12 01:12:39;;;;;;;9.27;5.20;;;4.40;99.90;;;;;;5055700;28;20388;-89
2022/04/12 01:15:20;;;;;;;11.85;5.00;;;4.40;99.90;;;;;;5056858;28;20021;-89
2022/04/12 01:17:47;;;;;;;10.05;4.93;;;4.40;99.90;;;;;;5055562;28;20029;-89
2022/04/12 01:20:15;;;;;;;15.40;5.05;;;4.30;99.90;;;;;;5055646;28;20475;-90
2022/04/12 01:22:58;;;;;;;9.38;4.90;;;4.30;99.90;;;;;;5055115;28;20052;-89
2022/04/12 01:25:24;;;;;;;9.68;4.32;;;4.30;99.90;;;;;;5056578;28;20407;-90
2022/04/12 01:27:50;;;;;;;10.55;5.22;;;4.40;99.90;;;;;;5055509;28;20074;-90
2022/04/12 01:30:16;;;;;;;8.82;4.32;;;4.30;99.90;;;;;;5055248;28;20388;-88
2022/04/12 01:32:42;;;;;;;7.60;4.57;;;4.40;99.90;;;;;;5055351;28;20036;-90
2022/04/12 01:35:08;;;;;;;9.25;4.60;;;4.40;99.90;;;;;;5055387;28;20025;-90
2022/04/12 01:37:34;;;;;;;8.80;4.50;;;4.40;99.90;;;;;;5055133;28;20021;-91
2022/04/12 01:40:00;;;;;;;7.07;4.20;;;4.30;99.90;;;;;;5056466;28;20071;-88
2022/04/12 01:42:26;;;;;;;10.85;4.32;;;4.40;99.90;;;;;;5055338;28;20021;-87
2022/04/12 01:44:52;;;;;;;11.68;4.40;;;4.40;99.90;;;;;;5055005;28;20032;-91
2022/04/12 01:47:17;;;;;;;8.10;4.40;;;4.40;99.90;;;;;;5055775;28;20052;-89
2022/04/12 01:49:44;;;;;;;7.88;4.20;;;4.40;99.90;;;;;;5056101;28;20375;-89
2022/04/12 01:52:15;;;;;;;8.10;4.10;;;4.50;99.90;;;;;;5055903;28;20074;-88
2022/04/12 01:54:41;;;;;;;8.43;3.90;;;4.40;99.90;;;;;;5055188;28;20035;-90
2022/04/12 01:57:07;;;;;;;8.57;4.80;;;4.40;99.90;;;;;;5054797;28;20025;-89
2022/04/12 01:59:33;;;;;;;10.48;3.95;;;4.30;99.90;;;;;;5055084;28;20029;-89
2022/04/12 02:01:59;;;;;;;7.47;4.07;;;4.40;99.90;;;;;;5054428;28;20040;-89
2022/04/12 02:04:25;;;;;;;7.47;4.28;;;4.40;99.90;;;;;;5054655;28;20556;-89
2022/04/12 02:06:50;;;;;;;9.02;3.70;;;4.40;99.90;;;;;;5054645;28;20029;-89
2022/04/12 02:09:16;;;;;;;7.00;3.70;;;4.40;99.90;;;;;;5054238;28;20075;-89
2022/04/12 02:11:42;;;;;;;10.30;3.90;;;4.50;99.90;;;;;;5054433;28;20392;-92
2022/04/12 02:14:08;;;;;;;9.48;3.50;;;4.40;99.90;;;;;;5054460;28;20384;-89
2022/04/12 02:16:34;;;;;;;8.73;4.35;;;4.40;99.90;;;;;;5055745;28;20021;-89
2022/04/12 02:19:00;;;;;;;11.65;3.60;;;4.50;99.90;;;;;;5055526;28;20028;-90
2022/04/12 02:21:26;;;;;;;7.28;3.72;;;4.50;99.90;;;;;;5054283;28;20116;-89
2022/04/12 02:23:52;;;;;;;11.00;3.95;;;4.50;99.90;;;;;;5055369;28;20413;-89
2022/04/12 02:26:17;;;;;;;8.35;3.88;;;4.60;99.90;;;;;;5055127;28;20488;-88
2022/04/12 02:28:43;;;;;;;7.35;3.40;;;4.60;99.90;;;;;;5055236;28;20472;-89
2022/04/12 02:31:09;;;;;;;6.63;4.10;;;4.60;99.90;;;;;;5053971;28;20025;-88
2022/04/12 02:33:35;;;;;;;7.78;3.60;;;4.70;99.90;;;;;;5054067;28;20383;-89
2022/04/12 02:36:00;;;;;;;6.55;3.65;;;4.70;99.90;;;;;;5054252;28;20024;-89
2022/04/12 02:38:26;;;;;;;9.13;3.70;;;4.70;99.90;;;;;;5055156;28;20025;-88
2022/04/12 02:40:52;;;;;;;6.38;3.45;;;4.70;99.90;;;;;;5055515;28;20106;-89
2022/04/12 02:43:17;;;;;;;8.50;3.60;;;4.80;99.90;;;;;;5055618;28;20425;-89
2022/04/12 02:45:43;;;;;;;6.15;3.20;;;4.80;99.90;;;;;;5053705;28;20036;-88
2022/04/12 02:48:11;;;;;;;6.53;3.50;;;4.80;99.90;;;;;;5053891;28;20029;-88
2022/04/12 02:50:37;;;;;;;9.60;3.58;;;4.70;99.90;;;;;;5053741;28;20025;-88
2022/04/12 02:53:03;;;;;;;8.23;3.60;;;4.70;99.90;;;;;;5054048;28;20017;-88
2022/04/12 02:55:29;;;;;;;9.57;3.88;;;4.70;99.90;;;;;;5054810;28;20375;-88
2022/04/12 02:57:54;;;;;;;8.32;3.53;;;4.60;99.90;;;;;;5055105;28;20025;-89
2022/04/12 03:00:20;;;;;;;9.63;3.85;;;4.60;99.90;;;;;;5053606;28;20032;-89
2022/04/12 03:02:46;;;;;;;9.95;3.33;;;4.60;99.90;;;;;;5053788;28;20027;-89
2022/04/12 03:05:12;;;;;;;8.10;3.75;;;4.60;99.90;;;;;;5053575;28;20111;-89
2022/04/12 03:07:38;;;;;;;9.85;3.33;;;4.50;99.90;;;;;;5054661;28;20444;-89
2022/04/12 03:10:04;;;;;;;5.75;3.45;;;4.50;99.90;;;;;;5055095;28;20486;-88
2022/04/12 03:12:30;;;;;;;5.70;3.22;;;4.50;99.90;;;;;;5053177;28;20028;-88
2022/04/12 03:14:55;;;;;;;6.55;3.58;;;4.60;99.90;;;;;;5054084;28;20025;-88
2022/04/12 03:17:21;;;;;;;7.65;3.78;;;4.60;99.90;;;;;;5053449;28;20025;-88
2022/04/12 03:19:47;;;;;;;8.15;3.65;;;4.60;99.90;;;;;;5053355;28;20054;-88
2022/04/12 03:22:13;;;;;;;5.18;3.03;;;4.70;99.90;;;;;;5053494;28;20029;-88
2022/04/12 03:24:38;;;;;;;6.40;3.50;;;4.70;99.90;;;;;;5054603;28;20028;-88
2022/04/12 03:27:05;;;;;;;10.25;3.83;;;4.70;99.90;;;;;;5053280;28;20025;-88
2022/04/12 03:29:31;;;;;;;8.23;3.30;;;4.70;99.90;;;;;;5054426;28;20029;-87
2022/04/12 03:31:56;;;;;;;5.47;3.22;;;4.80;99.90;;;;;;5054088;28;20033;-88
2022/04/12 03:34:22;;;;;;;8.95;3.92;;;4.80;99.90;;;;;;5054172;28;20492;-89
2022/04/12 03:36:48;;;;;;;9.30;3.97;;;4.90;99.90;;;;;;5054155;28;20479;-88
2022/04/12 03:39:17;;;;;;;5.85;3.40;;;4.80;99.90;;;;;;5053119;28;20033;-88
2022/04/12 03:41:46;;;;;;;6.40;3.58;;;4.80;99.90;;;;;;5053022;28;20431;-87
2022/04/12 03:44:12;;;;;;;7.45;3.35;;;4.80;99.90;;;;;;5053235;28;20087;-88
2022/04/12 03:46:37;;;;;;;6.95;3.58;;;4.90;99.90;;;;;;5054470;28;20467;-88
2022/04/12 03:49:03;;;;;;;5.00;3.03;;;4.80;99.90;;;;;;5054205;28;20155;-89
2022/04/12 03:51:30;;;;;;;8.73;3.30;;;4.90;99.90;;;;;;5053218;28;20062;-88
2022/04/12 03:53:56;;;;;;;6.57;3.42;;;4.90;99.90;;;;;;5053059;28;20021;-88
2022/04/12 03:56:22;;;;;;;8.70;3.28;;;4.80;99.90;;;;;;5052933;28;20475;-88
2022/04/12 03:58:48;;;;;;;9.25;3.88;;;4.80;99.90;;;;;;5053848;28;20103;-88
2022/04/12 04:01:14;;;;;;;5.85;3.10;;;4.80;99.90;;;;;;5054065;28;20093;-88
2022/04/12 04:03:40;;;;;;;8.68;3.50;;;4.70;99.90;;;;;;5054054;28;20025;-89
2022/04/12 04:06:06;;;;;;;7.60;3.90;;;4.80;99.90;;;;;;5054124;28;20434;-89
2022/04/12 04:08:32;;;;;;;7.65;3.45;;;4.70;99.90;;;;;;5053912;28;20055;-88
2022/04/12 04:10:58;;;;;;;8.57;3.78;;;4.70;99.90;;;;;;5053009;28;20038;-88
2022/04/12 04:13:26;;;;;;;6.40;3.28;;;4.60;99.90;;;;;;5052945;28;20025;-89
2022/04/12 04:15:53;;;;;;;5.93;3.55;;;4.50;99.90;;;;;;5052576;28;20465;-89
2022/04/12 04:18:18;;;;;;;6.82;3.55;;;4.40;99.90;;;;;;5052760;28;20116;-89
2022/04/12 04:20:44;;;;;;;9.10;3.88;;;4.30;99.90;;;;;;5053529;28;20108;-87
2022/04/12 04:23:10;;;;;;;8.88;3.65;;;4.30;99.90;;;;;;5051904;28;20029;-88
2022/04/12 04:25:36;;;;;;;6.65;3.28;;;4.30;99.90;;;;;;5056228;28;20025;-89
2022/04/12 04:28:02;;;;;;;7.85;3.53;;;4.20;99.90;;;;;;5056339;28;20029;-88
2022/04/12 04:30:31;;;;;;;5.53;3.17;;;4.20;99.90;;;;;;5055803;28;20029;-89
2022/04/12 04:32:57;;;;;;;11.43;4.05;;;4.10;99.90;;;;;;5055500;28;20025;-87
2022/04/12 04:35:22;;;;;;;7.22;3.33;;;4.10;99.90;;;;;;5056357;28;20021;-90
2022/04/12 04:37:49;;;;;;;8.00;3.42;;;4.10;99.90;;;;;;5056364;28;20025;-91
2022/04/12 04:40:22;;;;;;;8.27;3.50;;;4.10;99.90;;;;;;5056256;28;20017;-89
2022/04/12 04:42:51;;;;;;;11.52;3.70;;;4.00;99.90;;;;;;5056162;28;20029;-88
2022/04/12 04:45:17;;;;;;;8.73;3.90;;;3.90;99.90;;;;;;5056169;28;20067;-88
2022/04/12 04:47:53;;;;;;;7.85;4.10;;;3.90;99.90;;;;;;5055860;28;20025;-90
2022/04/12 04:50:20;;;;;;;12.68;4.20;;;3.90;99.90;;;;;;5057198;28;20111;-94
2022/04/12 04:52:46;;;;;;;8.15;3.78;;;3.90;99.90;;;;;;5056179;28;20068;-89
2022/04/12 04:55:13;;;;;;;7.07;3.90;;;4.00;99.90;;;;;;5058042;28;20028;-89
2022/04/12 04:57:40;;;;;;;11.73;4.05;;;3.90;99.90;;;;;;5055612;28;20087;-87
2022/04/12 05:00:08;;;;;;;8.82;4.10;;;3.90;99.90;;;;;;5055826;28;20021;-88
2022/04/12 05:02:34;;;;;;;7.55;4.03;;;3.80;99.90;;;;;;5055728;28;20044;-89
2022/04/12 05:05:01;;;;;;;6.85;3.83;;;3.80;99.90;;;;;;5056607;28;20064;-91
2022/04/12 05:07:27;;;;;;;9.07;4.10;;;3.80;99.90;;;;;;5055504;28;20048;-88
2022/04/12 05:09:53;;;;;;;11.32;4.38;;;3.80;99.90;;;;;;5055161;28;20053;-87
2022/04/12 05:12:19;;;;;;;12.27;3.97;;;3.80;99.90;;;;;;5055442;28;20033;-89
2022/04/12 05:14:45;;;;;;;11.30;4.30;;;3.70;99.90;;;;;;5056597;28;20425;-90
2022/04/12 16:43:35;;;;;;;7.50;2.35;;;6.70;94.80;;;;;;5112594;27;20365;-87
2022/04/12 16:46:01;;;;;;;6.53;3.42;;;6.60;95.50;;;;;;5111152;28;20437;-87
2022/04/12 16:48:26;;;;;;;5.97;2.50;;;6.60;96.20;;;;;;5110781;28;20386;-86
2022/04/12 16:50:52;;;;;;;8.45;3.20;;;6.70;96.40;;;;;;5112154;28;20096;-87
2022/04/12 16:53:20;;;;;;;5.25;2.67;;;6.70;96.60;;;;;;5110413;28;20470;-85
2022/04/12 16:55:46;;;;;;;5.57;2.78;;;6.80;96.50;;;;;;5110988;28;20566;-88
2022/04/12 16:58:13;;;;;;;5.30;3.00;;;6.90;96.10;;;;;;5110789;28;20470;-88
2022/04/12 17:00:39;;;;;;;8.38;3.75;;;6.90;96.00;;;;;;5110926;28;20030;-88
2022/04/12 17:03:06;;;;;;;6.18;2.97;;;6.90;96.50;;;;;;5110761;28;20024;-87
2022/04/12 17:05:32;;;;;;;6.82;3.25;;;7.00;94.90;;;;;;5110908;28;20076;-89
2022/04/12 17:07:58;;;;;;;6.70;2.83;;;7.10;95.10;;;;;;5110670;28;20051;-86
2022/04/12 17:10:24;;;;;;;6.93;3.22;;;7.10;95.20;;;;;;5110284;28;20533;-86
2022/04/12 17:12:50;;;;;;;7.80;3.25;;;7.10;95.40;;;;;;5110496;28;20081;-90
2022/04/12 17:15:16;;;;;;;4.00;2.65;;;7.20;95.00;;;;;;5110361;28;20070;-87
2022/04/12 17:17:41;;;;;;;4.57;2.53;;;7.20;94.80;;;;;;5110751;28;20073;-87
2022/04/12 17:20:08;;;;;;;8.20;2.75;;;7.20;95.10;;;;;;5110425;28;20020;-88
2022/04/12 17:22:34;;;;;;;6.13;2.65;;;7.20;95.30;;;;;;5111554;28;20424;-87
2022/04/12 17:25:01;;;;;;;4.60;2.88;;;7.20;95.40;;;;;;5110186;28;20080;-86
2022/04/12 17:27:27;;;;;;;5.93;2.83;;;7.20;95.30;;;;;;5111478;28;20034;-89
2022/04/12 17:29:52;;;;;;;6.28;2.85;;;7.20;95.30;;;;;;5111439;28;20016;-90
2022/04/12 17:32:18;;;;;;;5.90;3.10;;;7.30;94.60;;;;;;5110414;28;20042;-88
2022/04/12 17:34:44;;;;;;;7.43;3.17;;;7.20;94.70;;;;;;5110001;28;20024;-89
2022/04/12 17:37:10;;;;;;;4.38;3.03;;;7.20;94.60;;;;;;5111312;28;20106;-86
2022/04/12 17:39:36;;;;;;;6.63;3.20;;;7.20;94.70;;;;;;5109951;28;20028;-87
2022/04/12 17:42:04;;;;;;;7.82;3.00;;;7.10;94.40;;;;;;5109822;28;20070;-88
2022/04/12 17:44:30;;;;;;;10.57;3.22;;;7.10;94.50;;;;;;5109932;28;20020;-88
2022/04/12 17:46:56;;;;;;;4.35;2.70;;;7.10;94.50;;;;;;5109793;28;20054;-89
2022/04/12 17:49:22;;;;;;;6.10;3.08;;;7.20;93.90;;;;;;5110114;28;20030;-92
2022/04/12 17:51:48;;;;;;;5.75;2.90;;;7.30;93.60;;;;;;5110028;28;20040;-92
2022/04/12 17:54:14;;;;;;;5.68;2.40;;;7.20;94.00;;;;;;5100396;28;20077;-87
2022/04/12 17:56:39;;;;;;;7.70;2.47;;;7.20;94.10;;;;;;5097332;28;20031;-90
2022/04/12 17:59:05;;;;;;;8.57;4.65;;;7.20;93.90;;;;;;5095743;28;20440;-83
2022/04/12 18:01:31;;;;;;;5.45;2.50;;;7.20;94.10;;;;;;5095879;28;20051;-89
2022/04/12 18:03:57;;;;;;;6.50;2.30;;;7.20;94.20;;;;;;5097116;28;20052;-90
2022/04/12 18:06:23;;;;;;;4.53;2.65;;;7.10;94.70;;;;;;5096934;28;20044;-86
2022/04/12 18:08:49;;;;;;;5.82;2.55;;;7.10;94.40;;;;;;5095918;28;20599;-91
2022/04/12 18:11:15;;;;;;;6.47;2.90;;;7.10;94.70;;;;;;5095990;28;20409;-88
2022/04/12 18:13:42;;;;;;;4.53;2.45;;;7.00;94.80;;;;;;5095671;28;20360;-89
2022/04/12 18:16:09;;;;;;;4.22;2.45;;;7.10;94.80;;;;;;5096814;28;20095;-89
2022/04/12 18:18:34;;;;;;;6.20;2.97;;;7.10;94.90;;;;;;5095829;28;20103;-89
2022/04/12 18:21:00;;;;;;;6.68;2.90;;;7.00;95.20;;;;;;5096829;28;20095;-88
2022/04/12 18:23:26;;;;;;;5.22;2.85;;;7.00;95.60;;;;;;5095484;28;20041;-88
2022/04/12 18:25:52;;;;;;;6.50;2.60;;;7.00;95.70;;;;;;5095472;28;20391;-89
2022/04/12 18:28:18;;;;;;;8.32;3.13;;;7.00;95.80;;;;;;5096407;28;20020;-86
2022/04/12 18:30:43;;;;;;;6.88;2.60;;;6.90;96.00;;;;;;5095298;28;20066;-86
2022/04/12 18:33:09;;;;;;;6.53;2.95;;;6.90;96.10;;;;;;5095112;28;20471;-85
2022/04/12 18:35:36;;;;;;;6.28;4.10;;;6.90;96.40;;;;;;5094988;28;20032;-87
2022/04/12 18:38:05;;;;;;;5.32;2.75;;;6.90;96.20;;;;;;5096186;28;20024;-87
2022/04/12 18:40:34;;;;;;;3.58;2.78;;;6.80;96.10;;;;;;5096307;28;20028;-86
2022/04/12 18:43:00;;;;;;;5.47;2.70;;;6.80;96.20;;;;;;5094581;28;20076;-86
2022/04/12 18:45:26;;;;;;;6.65;2.95;;;6.70;96.40;;;;;;5094874;28;20531;-86
2022/04/12 18:47:51;;;;;;;7.50;3.00;;;6.60;96.70;;;;;;5095006;28;20023;-86
2022/04/12 18:50:17;;;;;;;4.38;2.30;;;6.60;96.80;;;;;;5094535;28;20386;-87
2022/04/12 18:52:45;;;;;;;4.72;3.22;;;6.60;96.70;;;;;;5094470;28;20081;-84
2022/04/12 18:55:11;;;;;;;10.00;3.75;;;6.60;96.70;;;;;;5094714;28;20047;-86
2022/04/12 18:57:39;;;;;;;8.30;3.50;;;6.60;96.90;;;;;;5094934;28;20024;-87
2022/04/12 19:00:10;;;;;;;6.43;3.35;;;6.60;96.90;;;;;;5094744;28;20028;-86
2022/04/12 19:02:35;;;;;;;7.72;3.15;;;6.50;97.30;;;;;;5094367;28;20056;-85
2022/04/12 19:05:02;;;;;;;5.75;2.95;;;6.60;97.00;;;;;;5093470;28;20483;-85
2022/04/12 19:07:28;;;;;;;7.88;3.08;;;6.60;96.90;;;;;;5094609;28;20359;-86
2022/04/12 19:09:56;;;;;;;5.90;2.83;;;6.70;96.90;;;;;;5094592;28;20077;-87
2022/04/12 19:12:23;;;;;;;5.00;3.00;;;6.60;96.80;;;;;;5094481;28;20471;-86
2022/04/12 19:14:49;;;;;;;7.28;3.65;;;6.60;97.20;;;;;;5095617;28;20027;-88
2022/04/12 19:17:15;;;;;;;7.75;2.70;;;6.60;97.00;;;;;;5094126;28;20063;-85
2022/04/12 19:19:41;;;;;;;5.60;3.22;;;6.70;96.80;;;;;;5094208;28;20045;-86
2022/04/12 19:22:07;;;;;;;5.70;2.80;;;6.70;96.50;;;;;;5094368;28;20046;-86
2022/04/12 19:24:33;;;;;;;5.10;2.35;;;6.70;96.60;;;;;;5094041;28;20103;-86
2022/04/12 19:26:59;;;;;;;7.45;3.10;;;6.60;96.70;;;;;;5094152;28;20027;-87
2022/04/12 19:29:24;;;;;;;3.38;2.53;;;6.60;96.90;;;;;;5095608;28;20034;-88
2022/04/12 19:31:52;;;;;;;5.95;2.65;;;6.60;97.10;;;;;;5094141;28;20031;-90
2022/04/12 19:34:18;;;;;;;6.80;2.35;;;6.60;97.10;;;;;;5094082;28;20474;-84
2022/04/12 19:36:44;;;;;;;6.20;2.97;;;6.70;97.20;;;;;;5094037;28;20031;-88
2022/04/12 19:39:10;;;;;;;5.55;2.30;;;6.60;97.70;;;;;;5093924;28;20474;-86
2022/04/12 19:41:36;;;;;;;6.78;2.70;;;6.60;98.00;;;;;;5094742;28;20138;-86
2022/04/12 19:44:02;;;;;;;3.97;2.40;;;6.50;98.30;;;;;;5093640;28;20059;-85
2022/04/12 19:46:28;;;;;;;3.70;1.92;;;6.50;98.50;;;;;;5093087;28;20027;-88
2022/04/12 19:48:55;;;;;;;4.22;1.88;;;6.60;97.90;;;;;;5094011;28;20020;-85
2022/04/12 19:51:22;;;;;;;3.85;2.00;;;6.50;98.00;;;;;;5092922;28;20090;-87
2022/04/12 19:53:49;;;;;;;3.55;2.22;;;6.50;97.80;;;;;;5092814;28;20023;-87
2022/04/12 19:56:15;;;;;;;4.50;2.30;;;6.50;98.00;;;;;;5093020;28;20047;-88
2022/04/12 19:58:42;;;;;;;5.55;2.25;;;6.50;98.30;;;;;;5092740;28;20493;-88
2022/04/12 20:01:08;;;;;;;3.67;1.95;;;6.40;98.40;;;;;;5093023;28;20020;-86
2022/04/12 20:03:38;;;;;;;4.65;2.40;;;6.40;98.60;;;;;;5093113;28;20479;-88
2022/04/12 20:06:05;;;;;;;3.22;2.20;;;6.50;98.90;;;;;;5093496;28;20032;-87
2022/04/12 20:08:32;;;;;;;2.67;2.13;;;6.50;98.90;;;;;;5092981;28;20028;-85
2022/04/12 20:10:58;;;;;;;4.22;2.33;;;6.50;98.50;;;;;;5093581;28;20028;-87
2022/04/12 20:13:24;;;;;;;8.10;2.63;;;6.40;98.60;;;;;;5094980;28;20024;-87
2022/04/12 20:15:50;;;;;;;4.28;2.40;;;6.40;98.90;;;;;;5093258;28;20024;-87
2022/04/12 20:18:15;;;;;;;4.65;2.10;;;6.40;98.90;;;;;;5093063;28;20036;-87
2022/04/12 20:20:42;;;;;;;3.50;2.13;;;6.40;98.90;;;;;;5093150;28;20020;-86
2022/04/12 20:23:11;;;;;;;3.03;1.95;;;6.40;98.80;;;;;;5092897;28;20024;-86
2022/04/12 20:25:38;;;;;;;3.05;2.15;;;6.40;98.90;;;;;;5092939;28;20481;-88
2022/04/12 20:28:05;;;;;;;3.80;2.20;;;6.40;99.00;;;;;;5092778;28;20028;-89
2022/04/12 20:30:32;;;;;;;3.45;1.90;;;6.40;99.50;;;;;;5093704;28;20012;-82
2022/04/12 20:33:01;;;;;;;3.00;2.00;;;6.30;99.80;;;;;;5092102;28;20470;-87
2022/04/12 20:35:30;;;;;;;3.38;1.73;;;6.20;99.90;;;;;;5092244;28;20020;-87
2022/04/12 20:37:56;;;;;;;5.47;2.33;;;6.00;99.90;;;;;;5093084;28;20031;-86
2022/04/12 20:40:22;;;;;;;5.68;2.08;;;5.90;99.90;;;;;;5093833;28;20544;-87
2022/04/12 20:42:48;;;;;;;3.70;1.77;;;5.80;99.90;;;;;;5092016;28;20482;-86
2022/04/12 20:45:14;;;;;;;3.42;1.95;;;5.60;99.90;;;;;;5092496;28;20107;-86
2022/04/12 20:47:42;;;;;;;3.10;1.98;;;5.50;99.90;;;;;;5092411;28;20111;-86
2022/04/12 20:50:09;;;;;;;4.95;2.75;;;5.30;99.90;;;;;;5091020;28;20095;-86
2022/04/12 20:52:35;;;;;;;2.92;2.28;;;5.30;99.90;;;;;;5092535;28;20294;-88
2022/04/12 20:55:02;;;;;;;3.90;2.22;;;5.30;99.90;;;;;;5092330;28;20850;-87
2022/04/12 20:57:28;;;;;;;4.40;2.35;;;5.20;99.90;;;;;;5092394;28;20020;-88
2022/04/12 20:59:56;;;;;;;2.58;2.17;;;5.20;99.90;;;;;;5092733;28;20367;-88
2022/04/12 21:02:22;;;;;;;3.22;2.10;;;5.10;99.90;;;;;;5092279;28;20386;-87
2022/04/12 21:04:48;;;;;;;2.70;1.80;;;5.20;99.90;;;;;;5092715;28;20027;-86
2022/04/12 21:07:15;;;;;;;3.35;2.03;;;5.20;99.90;;;;;;5092511;28;20129;-87
2022/04/12 21:09:49;;;;;;;3.22;1.98;;;5.20;99.90;;;;;;5092702;28;20466;-87
2022/04/12 21:12:14;;;;;;;4.40;1.90;;;5.20;99.90;;;;;;5090784;28;20482;-86
2022/04/12 21:14:41;;;;;;;4.05;2.25;;;5.30;99.90;;;;;;5092951;28;20040;-87
2022/04/12 21:17:07;;;;;;;1.98;1.63;;;5.40;99.90;;;;;;5089789;28;20028;-86
2022/04/12 21:19:33;;;;;;;2.28;1.60;;;5.40;99.90;;;;;;5092446;28;20417;-85
2022/04/12 21:21:58;;;;;;;3.90;2.33;;;5.60;99.90;;;;;;5092508;28;20016;-84
2022/04/12 21:24:25;;;;;;;2.90;1.90;;;5.50;99.90;;;;;;5092452;28;20022;-88
2022/04/12 21:26:51;;;;;;;1.88;1.52;;;5.60;99.90;;;;;;5092688;28;20012;-87
2022/04/12 21:29:17;;;;;;;3.55;1.75;;;5.60;99.90;;;;;;5094647;28;20016;-88
2022/04/12 21:31:43;;;;;;;2.70;1.80;;;5.70;99.90;;;;;;5096635;28;20024;-86
2022/04/12 21:34:09;;;;;;;3.63;1.50;;;5.60;99.90;;;;;;5097132;28;20099;-88
2022/04/12 21:36:35;;;;;;;2.05;1.33;;;5.70;99.90;;;;;;5097185;28;20016;-88
2022/04/12 21:39:01;;;;;;;1.52;1.42;;;5.70;99.90;;;;;;5095720;28;20099;-85
2022/04/12 21:41:27;;;;;;;1.10;1.00;;;5.70;99.90;;;;;;5096709;28;20123;-84
2022/04/12 21:43:53;;;;;;;1.02;0.95;;;5.80;99.90;;;;;;5095809;28;20024;-87
2022/04/12 21:46:19;;;;;;;2.00;1.33;;;5.90;99.90;;;;;;5095856;28;20023;-88
2022/04/12 21:48:46;;;;;;;2.53;1.23;;;5.90;99.90;;;;;;5096917;28;20514;-82
2022/04/12 21:51:11;;;;;;;2.08;1.33;;;6.00;99.90;;;;;;5096603;28;20031;-86
2022/04/12 21:53:39;;;;;;;3.53;1.33;;;5.90;99.90;;;;;;5096689;28;20017;-86
2022/04/12 21:56:06;;;;;;;2.15;1.33;;;6.00;99.90;;;;;;5096550;28;20085;-84
2022/04/12 21:58:31;;;;;;;1.83;1.40;;;6.00;99.90;;;;;;5095436;28;20031;-87
2022/04/12 22:00:57;;;;;;;1.95;1.40;;;6.00;99.90;;;;;;5094959;28;20023;-83
2022/04/12 22:03:23;;;;;;;2.33;1.30;;;5.90;99.90;;;;;;5096354;28;20126;-87
2022/04/12 22:05:50;;;;;;;2.33;1.35;;;5.90;99.90;;;;;;5096600;28;20020;-87
2022/04/12 22:08:16;;;;;;;1.83;1.40;;;5.90;99.90;;;;;;5095233;28;20081;-87
2022/04/12 22:10:43;;;;;;;2.33;1.23;;;5.90;99.90;;;;;;5095378;28;20023;-86
2022/04/12 22:13:09;;;;;;;4.25;1.35;;;6.00;99.90;;;;;;5095200;28;20023;-87
2022/04/12 22:15:37;;;;;;;1.90;1.33;;;6.00;99.90;;;;;;5095218;28;20267;-87
2022/04/12 22:18:04;;;;;;;2.35;1.30;;;6.00;99.90;;;;;;5096561;28;20020;-85
2022/04/12 22:20:30;;;;;;;2.08;1.20;;;5.90;99.90;;;;;;5095408;28;20032;-86
2022/04/12 22:22:56;;;;;;;2.10;1.25;;;5.90;99.90;;;;;;5095114;28;20031;-84
2022/04/12 22:25:22;;;;;;;1.88;1.10;;;5.90;99.90;;;;;;5096267;28;20467;-87
2022/04/12 22:27:48;;;;;;;1.05;1.05;;;5.90;99.90;;;;;;5095052;28;20020;-86
2022/04/12 22:30:14;;;;;;;2.45;1.13;;;5.90;99.90;;;;;;5095022;28;20019;-87
2022/04/12 22:32:40;;;;;;;1.40;1.13;;;5.90;99.90;;;;;;5095954;28;20457;-85
2022/04/12 22:35:08;;;;;;;1.48;1.23;;;5.90;99.90;;;;;;5094955;28;20042;-88
2022/04/12 22:37:40;;;;;;;1.33;1.20;;;5.80;99.90;;;;;;5094948;28;20024;-88
2022/04/12 22:40:10;;;;;;;2.47;1.67;;;5.90;99.90;;;;;;5095752;28;20085;-87
2022/04/12 22:42:38;;;;;;;3.40;1.38;;;5.90;99.90;;;;;;5094409;28;20112;-87
2022/04/12 22:45:09;;;;;;;3.13;1.15;;;5.90;99.90;;;;;;5094654;28;20027;-84
2022/04/12 22:47:48;;;;;;;1.98;1.13;;;5.90;99.90;;;;;;5093359;28;20023;-85
2022/04/12 22:50:14;;;;;;;1.98;0.90;;;5.90;99.90;;;;;;5103614;28;20016;-86
2022/04/12 22:52:41;;;;;;;0.80;0.80;;;5.90;99.90;;;;;;5094350;28;20069;-84
2022/04/12 22:55:07;;;;;;;1.40;1.10;;;5.90;99.90;;;;;;5094512;28;20032;-86
2022/04/12 22:57:33;;;;;;;1.33;1.10;;;5.90;99.90;;;;;;5095586;28;20051;-85
2022/04/12 22:59:59;;;;;;;0.80;0.80;;;5.80;99.90;;;;;;5094394;28;20067;-87
2022/04/12 23:02:25;;;;;;;1.90;1.10;;;5.90;99.90;;;;;;5094655;28;20028;-87
2022/04/12 23:04:51;;;;;;;1.42;1.25;;;5.80;99.90;;;;;;5096037;28;20032;-87
2022/04/12 23:07:16;;;;;;;1.70;0.98;;;5.80;99.90;;;;;;5095636;28;20020;-86
2022/04/12 23:09:42;;;;;;;1.13;1.00;;;5.80;99.90;;;;;;5094693;28;20020;-87
2022/04/12 23:12:08;;;;;;;1.27;1.15;;;5.80;99.90;;;;;;5096238;28;20024;-87
2022/04/12 23:14:34;;;;;;;1.30;1.20;;;5.70;99.90;;;;;;5094950;28;20024;-87
2022/04/12 23:17:00;;;;;;;1.10;0.95;;;5.70;99.90;;;;;;5094643;28;20436;-86
2022/04/12 23:19:26;;;;;;;1.52;0.98;;;5.70;99.90;;;;;;5096063;28;20024;-88
2022/04/12 23:21:52;;;;;;;1.45;1.17;;;5.80;99.90;;;;;;5094648;28;20028;-87
2022/04/12 23:24:18;;;;;;;1.33;1.02;;;5.80;99.90;;;;;;5094522;28;20042;-87
2022/04/12 23:26:43;;;;;;;0.90;0.90;;;5.70;99.90;;;;;;5094595;28;20028;-87
2022/04/12 23:29:09;;;;;;;1.40;1.15;;;5.70;99.90;;;;;;5094394;28;20027;-87
2022/04/12 23:31:35;;;;;;;1.10;1.10;;;5.70;99.90;;;;;;5094383;28;20212;-86
2022/04/12 23:34:01;;;;;;;1.20;1.10;;;5.60;99.90;;;;;;5094423;28;20024;-86
2022/04/12 23:36:26;;;;;;;1.33;1.20;;;5.70;99.90;;;;;;5093972;28;20020;-85
2022/04/12 23:38:52;;;;;;;1.05;0.93;;;5.70;99.90;;;;;;5094115;28;20074;-86
2022/04/12 23:41:18;;;;;;;1.92;0.75;;;5.70;99.90;;;;;;5095293;28;20020;-86
2022/04/12 23:43:44;;;;;;;2.03;0.88;;;5.70;99.90;;;;;;5095250;28;20604;-87
2022/04/12 23:46:09;;;;;;;1.10;1.10;;;5.60;99.90;;;;;;5094236;28;20024;-87
2022/04/12 23:48:36;;;;;;;1.60;0.80;;;5.70;99.90;;;;;;5094016;28;20024;-87
2022/04/12 23:51:02;;;;;;;2.20;1.13;;;5.70;99.90;;;;;;5093598;28;20020;-86
2022/04/12 23:53:27;;;;;;;1.20;1.10;;;5.70;99.90;;;;;;5094048;28;20431;-87
2022/04/12 23:55:53;;;;;;;1.85;1.10;;;5.60;99.90;;;;;;5094885;28;20420;-86
2022/04/12 23:58:20;;;;;;;3.05;0.77;;;5.60;99.90;;;;;;5094933;28;20035;-88
